Tancos, Portugal

6:08 AM WEST on September 15, 2014 (GMT +0100)
Montalvo | Change Station
CLOSE
Current Station
Personal Weather Station
Location: Constancia, Santarem
Elevation: 262 ft
Nearby Weather Stations

Elev 262 ft 39.48 °N, 8.30 °W | Updated 8 seconds ago

Partly Cloudy
Partly Cloudy
64.4 °F
Feels Like 64.4 °F
N
0.0
Wind Variable Wind from WNW
Gusts 2.0 mph

Today
High -- | Low -- °F
--% Chance of Precip.
Yesterday
High -- | Low -- °F
Precip. -- in
7:14 AM 7:42 PM
Waning Gibbous, 59% visible
Pressure 29.89 in
Visibility 6.2 miles
Clouds Mostly Cloudy 1600 ft
Few 2000 ft
Dew Point 63 °F
Humidity 95%
Rainfall 0.00 in
Snow Depth Not available.
UV 0 out of 12
Pollen Not available.
Air Quality Not available.
Flu Activity Not available.
METAR LPPT 150430Z 22007KT 9999 BKN016 FEW020TCU 20/19 Q1012

More Conditions Fewer Conditions

Pressure 29.89 in
Visibility 6.2 miles
Clouds Mostly Cloudy 1600 ft
Few 2000 ft
Dew Point 63 °F
Humidity 95%
Rainfall 0.00 in
Snow Depth Not available.
UV 0 out of 12
Pollen Not available.
Air Quality Not available.
Flu Activity Not available.
METAR LPPT 150430Z 22007KT 9999 BKN016 FEW020TCU 20/19 Q1012

More Conditions Fewer Conditions

10-Day Weather Forecast

Almanac

Astronomy

Sep. 15, 2014 Rise Set
Actual Time 7:14 AM WEST 7:42 PM WEST
Civil Twilight 6:47 AM WEST 8:09 PM WEST
Nautical Twilight 6:15 AM WEST 8:41 PM WEST
Astronomical Twilight 5:43 AM WEST 9:13 PM WEST
Moon No Moon Rise 2:01 PM WEST
Length of Visible Light 13h 21m
Length of Day
12h 27m
Tomorrow will be 2m 32s shorter.
Waning Gibbous, 59% of the Moon is Illuminated
Today
Waning Gibbous
Sep 15
Last Quarter
Sep 24
New
Oct 1
First Quarter
Oct 8
Full

Yesterday's Extremes

Country Highs Country Lows

Community

WunderPhotos

Upload Photos

1,753,411 photos uploaded!

Nearby

Snow Depth

Not available.

Earthquake Activity

City Distance Mag. Time & Date
No recent earthquake activity has been reported nearby.
Minimum magnitude displayed is 2.5.

Coastal Water Temperatures

Place Temperature
No Stations Reporting

Nearby Weather Stations